createdAt,value
2016-07-25T00:00:25.282Z,94.82
2016-07-25T00:01:25.270Z,94.57
2016-07-25T00:02:25.296Z,94.72
2016-07-25T00:03:25.279Z,94.24
2016-07-25T00:04:25.268Z,94.72
2016-07-25T00:05:25.291Z,94.62
2016-07-25T00:06:25.299Z,94.14
2016-07-25T00:07:25.286Z,94.24
2016-07-25T00:08:25.320Z,94.53
2016-07-25T00:09:25.292Z,94.62
2016-07-25T00:10:25.289Z,94.72
2016-07-25T00:11:25.315Z,95.01
2016-07-25T00:12:25.309Z,94.91
2016-07-25T00:13:25.314Z,95.25
2016-07-25T00:14:25.312Z,94.82
2016-07-25T00:15:37.885Z,94.96
2016-07-25T00:16:25.309Z,95.25
2016-07-25T00:17:25.307Z,95.15
2016-07-25T00:18:25.290Z,94.87
2016-07-25T00:19:25.326Z,95.06
2016-07-25T00:20:25.350Z,94.38
2016-07-25T00:21:25.302Z,95.54
2016-07-25T00:22:25.336Z,95.54
2016-07-25T00:23:25.335Z,95.73
2016-07-25T00:24:25.325Z,95.45
2016-07-25T00:25:25.340Z,95.93
2016-07-25T00:26:25.326Z,95.93
2016-07-25T00:27:25.322Z,96.31
2016-07-25T00:28:25.332Z,96.31
2016-07-25T00:29:25.343Z,97.14
2016-07-25T00:30:25.337Z,97.42
2016-07-25T00:31:25.346Z,97.33
2016-07-25T00:32:32.822Z,98.1
2016-07-25T00:33:25.359Z,97.81
2016-07-25T00:34:25.381Z,98.39
2016-07-25T00:35:25.352Z,98.2
2016-07-25T00:36:25.375Z,98.2
2016-07-25T00:37:25.369Z,98.1
2016-07-25T00:38:25.340Z,98.88
2016-07-25T00:39:25.357Z,98.97
2016-07-25T00:40:25.354Z,98.88
2016-07-25T00:41:25.379Z,99.36
2016-07-25T00:42:25.392Z,99.74
2016-07-25T00:43:25.364Z,99.74
2016-07-25T00:44:25.374Z,99.36
2016-07-25T00:45:25.355Z,99.31
2016-07-25T00:46:25.355Z,98.78
2016-07-25T00:47:25.389Z,98.68
2016-07-25T00:48:25.372Z,98.78
2016-07-25T00:49:25.376Z,98.78
2016-07-25T00:50:25.384Z,99.26
2016-07-25T00:51:25.389Z,99.07
2016-07-25T00:52:25.393Z,98.58
2016-07-25T00:53:25.388Z,98.39
2016-07-25T00:54:25.368Z,98.78
2016-07-25T00:55:25.382Z,99.07
2016-07-25T00:56:25.402Z,98.97
2016-07-25T00:57:25.388Z,98.78
2016-07-25T00:58:25.404Z,98.58
2016-07-25T00:59:25.415Z,98.78
2016-07-25T01:00:25.413Z,99.16
2016-07-25T01:01:25.405Z,99.36
2016-07-25T01:02:25.401Z,99.74
2016-07-25T01:03:25.416Z,99.65
2016-07-25T01:04:25.390Z,99.55
2016-07-25T01:05:25.435Z,99.99
2016-07-25T01:06:25.426Z,99.99
2016-07-25T01:07:25.445Z,99.99
2016-07-25T01:08:25.448Z,99.99
2016-07-25T01:09:25.442Z,99.99
2016-07-25T01:10:25.441Z,99.99
2016-07-25T01:11:25.429Z,99.99
2016-07-25T01:12:25.435Z,99.99
2016-07-25T01:13:25.430Z,99.99
2016-07-25T01:14:25.460Z,99.99
2016-07-25T01:15:25.440Z,99.99
2016-07-25T01:16:25.429Z,99.99
2016-07-25T01:17:25.472Z,99.99
2016-07-25T01:18:25.426Z,99.99
2016-07-25T01:19:25.423Z,99.99
2016-07-25T01:20:25.442Z,99.99
2016-07-25T01:21:25.432Z,99.99
2016-07-25T01:22:25.483Z,99.99
2016-07-25T01:23:25.463Z,99.99
2016-07-25T01:24:25.429Z,99.99
2016-07-25T01:25:25.454Z,99.99
2016-07-25T01:26:25.471Z,99.99
2016-07-25T01:27:25.442Z,99.99
2016-07-25T01:28:25.481Z,99.99
2016-07-25T01:29:25.492Z,99.99
2016-07-25T01:30:25.472Z,99.99
2016-07-25T01:31:25.465Z,99.99
2016-07-25T01:32:25.478Z,99.99
2016-07-25T01:33:25.466Z,99.99
2016-07-25T01:34:25.484Z,99.99
2016-07-25T01:35:25.463Z,99.99
2016-07-25T01:36:25.468Z,99.99
2016-07-25T01:37:25.480Z,99.99
2016-07-25T01:38:25.477Z,99.99
2016-07-25T01:39:25.478Z,99.99
2016-07-25T01:40:25.460Z,99.99
2016-07-25T01:41:25.509Z,99.99
2016-07-25T01:42:25.491Z,99.99
2016-07-25T01:43:25.493Z,99.99
2016-07-25T01:44:25.485Z,99.99
2016-07-25T01:45:25.497Z,99.99
2016-07-25T01:46:25.509Z,99.99
2016-07-25T01:47:25.514Z,99.99
2016-07-25T01:48:25.492Z,99.99
2016-07-25T01:49:25.493Z,99.99
2016-07-25T01:50:25.537Z,99.99
2016-07-25T01:51:25.489Z,99.99
2016-07-25T01:52:25.521Z,99.99
2016-07-25T01:53:25.490Z,99.99
2016-07-25T01:54:25.536Z,99.99
2016-07-25T01:55:25.504Z,99.99
2016-07-25T01:56:25.518Z,99.99
2016-07-25T01:57:25.522Z,99.99
2016-07-25T01:58:25.500Z,99.99
2016-07-25T01:59:25.505Z,99.99
2016-07-25T02:00:25.541Z,99.99
2016-07-25T02:01:25.526Z,99.99
2016-07-25T02:02:25.550Z,99.99
2016-07-25T02:03:25.534Z,99.99
2016-07-25T02:04:25.534Z,99.99
2016-07-25T02:05:25.542Z,99.99
2016-07-25T02:06:25.545Z,99.99
2016-07-25T02:07:25.551Z,99.99
2016-07-25T02:08:25.522Z,99.99
2016-07-25T02:09:25.540Z,99.99
2016-07-25T02:10:25.570Z,99.99
2016-07-25T02:11:25.550Z,99.99
2016-07-25T02:12:25.584Z,99.99
2016-07-25T02:13:25.553Z,99.99
2016-07-25T02:25:43.096Z,99.99
2016-07-25T02:26:43.102Z,99.99
2016-07-25T02:27:43.089Z,99.99
2016-07-25T02:28:43.081Z,99.99
2016-07-25T02:29:43.086Z,99.99
2016-07-25T02:30:43.060Z,99.99
2016-07-25T02:31:44.079Z,99.99
2016-07-25T02:32:42.948Z,99.99
2016-07-25T02:33:43.000Z,99.99
2016-07-25T02:34:43.032Z,99.99
2016-07-25T02:35:43.100Z,99.99
2016-07-25T02:36:43.102Z,99.99
2016-07-25T02:37:43.610Z,99.99
2016-07-25T02:38:43.017Z,99.99
2016-07-25T02:39:43.004Z,99.99
2016-07-25T02:40:43.537Z,99.99
2016-07-25T02:41:43.153Z,99.99
2016-07-25T02:42:42.999Z,99.99
2016-07-25T02:43:43.020Z,99.99
2016-07-25T02:44:43.009Z,99.99
2016-07-25T02:45:43.007Z,99.99
2016-07-25T02:46:42.997Z,99.99
2016-07-25T02:47:42.989Z,99.99
2016-07-25T02:48:43.075Z,99.99
2016-07-25T02:49:43.011Z,99.99
2016-07-25T02:50:43.022Z,99.99
2016-07-25T02:51:43.031Z,99.99
2016-07-25T02:52:43.048Z,99.99
2016-07-25T02:53:43.072Z,99.99
2016-07-25T02:54:43.021Z,99.99
2016-07-25T02:55:43.173Z,99.99
2016-07-25T02:56:43.017Z,99.99
2016-07-25T02:57:43.035Z,99.99
2016-07-25T02:58:43.037Z,99.99
2016-07-25T02:59:43.028Z,99.99
2016-07-25T03:00:43.032Z,99.99
2016-07-25T03:01:43.063Z,99.99
2016-07-25T03:02:43.024Z,99.99
2016-07-25T03:03:43.043Z,99.99
2016-07-25T03:04:43.050Z,99.99
2016-07-25T03:05:43.052Z,99.99
2016-07-25T03:06:43.064Z,99.99
2016-07-25T03:07:43.044Z,99.99
2016-07-25T03:08:43.052Z,99.99
2016-07-25T03:09:43.430Z,99.99
2016-07-25T03:10:43.045Z,99.99
2016-07-25T03:11:43.081Z,99.99
2016-07-25T03:12:43.096Z,99.99
2016-07-25T03:13:43.054Z,99.99
2016-07-25T03:14:43.045Z,99.99
2016-07-25T03:15:43.083Z,99.99
2016-07-25T03:16:43.090Z,99.99
2016-07-25T03:17:43.078Z,99.99
2016-07-25T03:18:43.044Z,99.99
2016-07-25T03:19:43.039Z,99.99
2016-07-25T03:20:43.059Z,99.99
2016-07-25T03:21:43.050Z,99.99
2016-07-25T03:22:43.059Z,99.99
2016-07-25T03:23:43.046Z,99.99
2016-07-25T03:24:43.092Z,99.99
2016-07-25T03:25:43.098Z,99.99
2016-07-25T03:26:43.085Z,99.99
2016-07-25T03:27:43.065Z,99.99
2016-07-25T03:28:43.069Z,99.99
2016-07-25T03:29:43.085Z,99.99
2016-07-25T03:30:43.096Z,99.99
2016-07-25T03:31:43.084Z,99.99
2016-07-25T03:32:43.092Z,99.99
2016-07-25T03:33:43.097Z,99.99
2016-07-25T03:34:43.113Z,99.99
2016-07-25T03:35:43.076Z,99.99
2016-07-25T03:36:43.100Z,99.99
2016-07-25T03:37:43.093Z,99.99
2016-07-25T03:38:43.113Z,99.99
2016-07-25T03:39:43.121Z,99.99
2016-07-25T03:40:43.105Z,99.99
2016-07-25T03:41:43.115Z,99.99
2016-07-25T03:42:43.105Z,99.99
2016-07-25T03:43:43.123Z,99.99
2016-07-25T03:44:43.107Z,99.99
2016-07-25T03:45:43.120Z,99.99
2016-07-25T03:46:43.095Z,99.99
2016-07-25T03:47:43.136Z,99.99
2016-07-25T03:48:43.136Z,99.99
2016-07-25T03:49:43.103Z,99.99
2016-07-25T03:50:43.111Z,99.99
2016-07-25T03:51:43.140Z,99.99
2016-07-25T03:52:43.129Z,99.99
2016-07-25T03:53:43.140Z,99.99
2016-07-25T03:54:43.146Z,99.99
2016-07-25T03:55:43.162Z,99.99
2016-07-25T03:56:43.157Z,99.99
2016-07-25T03:57:43.122Z,99.99
2016-07-25T03:58:43.132Z,99.99
2016-07-25T03:59:43.132Z,99.99
2016-07-25T04:00:43.142Z,99.99
2016-07-25T04:01:43.253Z,99.99
2016-07-25T04:02:43.161Z,99.99
2016-07-25T04:03:43.139Z,99.99
2016-07-25T04:04:46.924Z,99.99
2016-07-25T04:05:43.596Z,99.99
2016-07-25T04:06:43.167Z,99.99
2016-07-25T04:07:43.148Z,99.99
2016-07-25T04:08:43.162Z,99.99
2016-07-25T04:09:43.161Z,99.99
2016-07-25T04:10:43.161Z,99.99
2016-07-25T04:11:43.170Z,99.99
2016-07-25T04:12:43.167Z,99.99
2016-07-25T04:13:43.163Z,99.99
2016-07-25T04:14:43.158Z,99.99
2016-07-25T04:15:43.163Z,99.99
2016-07-25T04:16:43.179Z,99.99
2016-07-25T04:17:43.164Z,99.99
2016-07-25T04:18:43.176Z,99.99
2016-07-25T04:19:43.183Z,99.99
2016-07-25T04:20:43.222Z,99.99
2016-07-25T04:21:43.164Z,99.99
2016-07-25T04:22:43.193Z,99.99
2016-07-25T04:23:43.179Z,99.99
2016-07-25T04:24:43.205Z,99.99
2016-07-25T04:25:43.200Z,99.99
2016-07-25T04:26:43.176Z,99.99
2016-07-25T04:27:43.188Z,99.99
2016-07-25T04:28:43.203Z,99.99
2016-07-25T04:29:44.195Z,99.99
2016-07-25T04:30:43.216Z,99.99
2016-07-25T04:31:43.189Z,99.99
2016-07-25T04:32:43.190Z,99.99
2016-07-25T04:33:43.214Z,99.99
2016-07-25T04:34:43.222Z,99.99
2016-07-25T04:35:43.228Z,99.99
2016-07-25T04:36:43.213Z,99.99
2016-07-25T04:37:43.329Z,99.99
2016-07-25T04:38:43.213Z,99.99
2016-07-25T04:39:43.282Z,99.99
2016-07-25T04:40:43.231Z,99.99
2016-07-25T04:41:43.233Z,99.99
2016-07-25T04:42:43.311Z,99.99
2016-07-25T04:43:43.250Z,99.99
2016-07-25T04:44:43.334Z,99.99
2016-07-25T04:45:44.310Z,99.99
2016-07-25T04:46:43.254Z,99.99
2016-07-25T04:47:43.250Z,99.99
2016-07-25T04:48:43.247Z,99.99
2016-07-25T04:49:43.238Z,99.99
2016-07-25T04:50:43.221Z,99.99
2016-07-25T04:51:43.257Z,99.99
2016-07-25T04:52:43.231Z,99.99
2016-07-25T04:53:43.251Z,99.99
2016-07-25T04:54:43.276Z,99.99
2016-07-25T04:55:43.267Z,99.99
2016-07-25T04:56:43.260Z,99.99
2016-07-25T04:57:43.291Z,99.99
2016-07-25T04:58:43.270Z,99.99
2016-07-25T04:59:43.264Z,99.99
2016-07-25T05:00:43.276Z,99.99
2016-07-25T05:01:43.292Z,99.99
2016-07-25T05:02:43.276Z,99.99
2016-07-25T05:03:43.260Z,99.99
2016-07-25T05:04:43.275Z,99.99
2016-07-25T05:05:43.275Z,99.99
2016-07-25T05:06:43.267Z,99.99
2016-07-25T05:07:43.293Z,99.99
2016-07-25T05:08:43.305Z,99.99
2016-07-25T05:09:43.319Z,99.99
2016-07-25T05:10:43.297Z,99.99
2016-07-25T05:11:43.312Z,99.99
2016-07-25T05:12:43.305Z,99.99
2016-07-25T05:13:43.332Z,99.99
2016-07-25T05:14:43.294Z,99.99
2016-07-25T05:15:43.333Z,99.99
2016-07-25T05:16:43.410Z,99.99
2016-07-25T05:17:43.307Z,99.99
2016-07-25T05:18:43.321Z,99.99
2016-07-25T05:19:43.321Z,99.99
2016-07-25T05:20:43.315Z,99.99
2016-07-25T05:21:43.336Z,99.99
2016-07-25T05:22:43.333Z,99.99
2016-07-25T05:23:43.310Z,99.99
2016-07-25T05:24:43.330Z,99.99
2016-07-25T05:25:43.320Z,99.99
2016-07-25T05:26:43.343Z,99.99
2016-07-25T05:27:43.316Z,99.99
2016-07-25T05:28:43.338Z,99.99
2016-07-25T05:29:43.331Z,99.99
2016-07-25T05:30:43.324Z,99.99
2016-07-25T05:31:43.344Z,99.99
2016-07-25T05:32:43.366Z,99.99
2016-07-25T05:33:43.339Z,99.99
2016-07-25T05:34:43.315Z,99.99
2016-07-25T05:35:43.348Z,99.99
2016-07-25T05:36:43.331Z,99.99
2016-07-25T05:37:43.366Z,99.99
2016-07-25T05:38:43.359Z,99.99
2016-07-25T05:39:43.369Z,99.99
2016-07-25T05:40:43.356Z,99.99
2016-07-25T05:41:43.346Z,99.99
2016-07-25T05:42:43.406Z,99.99
2016-07-25T05:43:43.390Z,99.99
2016-07-25T05:44:43.421Z,99.99
2016-07-25T05:45:43.368Z,99.99
2016-07-25T05:46:43.333Z,99.99
2016-07-25T05:47:43.390Z,99.99
2016-07-25T05:48:43.388Z,99.99
2016-07-25T05:49:43.384Z,99.99
2016-07-25T05:50:43.387Z,99.99
2016-07-25T05:51:43.379Z,99.99
2016-07-25T05:52:43.347Z,99.99
2016-07-25T05:53:43.369Z,99.99
2016-07-25T05:54:43.392Z,99.99
2016-07-25T05:55:43.420Z,99.99
2016-07-25T05:56:43.961Z,99.99
2016-07-25T05:57:43.386Z,99.99
2016-07-25T05:58:43.461Z,99.99
2016-07-25T05:59:43.411Z,99.99
2016-07-25T06:00:43.423Z,99.99
2016-07-25T06:01:43.455Z,99.99
2016-07-25T06:02:43.421Z,99.99
2016-07-25T06:03:43.395Z,99.99
2016-07-25T06:04:43.412Z,99.99
2016-07-25T06:05:43.410Z,99.99
2016-07-25T06:06:43.394Z,99.99
2016-07-25T06:07:43.420Z,99.99
2016-07-25T06:08:43.432Z,99.99
2016-07-25T06:09:43.445Z,99.99
2016-07-25T06:10:43.461Z,99.99
2016-07-25T06:11:43.424Z,99.99
2016-07-25T06:12:43.412Z,99.99
2016-07-25T06:13:43.436Z,99.99
2016-07-25T06:14:43.443Z,99.99
2016-07-25T06:15:43.478Z,99.99
2016-07-25T06:16:46.559Z,99.99
2016-07-25T06:17:43.453Z,99.99
2016-07-25T06:18:43.468Z,99.99
2016-07-25T06:19:43.430Z,99.99
2016-07-25T06:20:43.475Z,99.99
2016-07-25T06:21:43.442Z,99.99
2016-07-25T06:22:43.468Z,99.99
2016-07-25T06:23:43.465Z,99.99
2016-07-25T06:24:43.442Z,99.99
2016-07-25T06:25:43.448Z,99.99
2016-07-25T06:26:43.477Z,99.99
2016-07-25T06:27:43.503Z,99.99
2016-07-25T06:28:43.464Z,99.99
2016-07-25T06:29:43.478Z,99.99
2016-07-25T06:30:43.513Z,99.99
2016-07-25T06:31:43.545Z,99.99
2016-07-25T06:33:43.465Z,99.99
2016-07-25T06:34:43.628Z,99.99
2016-07-25T06:35:42.981Z,99.99
2016-07-25T06:36:43.481Z,99.99
2016-07-25T06:37:43.475Z,99.99
2016-07-25T06:38:43.506Z,99.99
2016-07-25T06:39:43.516Z,99.99
2016-07-25T06:40:43.509Z,99.99
2016-07-25T06:41:43.498Z,99.99
2016-07-25T06:42:43.494Z,99.99
2016-07-25T06:43:43.512Z,99.55
2016-07-25T06:44:43.505Z,99.16
2016-07-25T06:45:58.695Z,98.44
2016-07-25T06:46:43.459Z,98.05
2016-07-25T06:47:43.490Z,98
2016-07-25T06:48:43.932Z,98.25
2016-07-25T06:49:43.531Z,98
2016-07-25T06:50:43.520Z,97.42
2016-07-25T06:51:43.506Z,96.65
2016-07-25T06:52:43.490Z,96.26
2016-07-25T06:53:43.618Z,96.07
2016-07-25T06:54:43.526Z,95.83
2016-07-25T06:56:43.632Z,96.17
2016-07-25T06:57:43.634Z,96.17
2016-07-25T06:58:43.523Z,95.83
2016-07-25T06:59:43.545Z,93.94
2016-07-25T07:00:43.612Z,94.62
2016-07-25T07:01:43.540Z,94.62
2016-07-25T07:02:43.727Z,94.62
2016-07-25T07:03:43.523Z,94.71
2016-07-25T07:04:43.545Z,94.18
2016-07-25T07:05:43.571Z,94.18
2016-07-25T07:06:43.638Z,93.3
2016-07-25T07:07:43.558Z,92.82
2016-07-25T07:08:43.555Z,92.63
2016-07-25T07:09:43.635Z,92.24
2016-07-25T07:10:43.660Z,91.8
2016-07-25T07:11:43.571Z,92.33
2016-07-25T07:12:43.633Z,91.08
2016-07-25T07:13:44.296Z,91.37
2016-07-25T07:14:43.588Z,92.77
2016-07-25T07:15:43.818Z,92.68
2016-07-25T07:16:43.844Z,93.45
2016-07-25T07:17:43.554Z,94.28
2016-07-25T07:18:43.612Z,94.67
2016-07-25T07:19:43.571Z,94.28
2016-07-25T07:20:43.556Z,93.89
2016-07-25T07:21:43.584Z,94.37
2016-07-25T07:22:43.574Z,94.67
2016-07-25T07:23:43.623Z,94.09
2016-07-25T07:24:43.575Z,94.28
2016-07-25T07:25:44.738Z,94.28
2016-07-25T07:26:43.774Z,93.65
2016-07-25T07:27:44.304Z,94.18
2016-07-25T07:28:43.576Z,93.31
2016-07-25T07:29:45.951Z,93.21
2016-07-25T07:30:43.737Z,91.86
2016-07-25T07:31:43.835Z,91.28
2016-07-25T07:32:43.675Z,91.14
2016-07-25T07:33:43.804Z,90.8
2016-07-25T07:34:43.644Z,90.6
2016-07-25T07:35:43.689Z,90.7
2016-07-25T07:36:44.326Z,90.7
2016-07-25T07:37:43.657Z,90.31
2016-07-25T07:38:43.611Z,89.83
2016-07-25T07:39:43.629Z,88.85
2016-07-25T07:40:43.609Z,89
2016-07-25T07:41:43.644Z,88.71
2016-07-25T07:42:43.629Z,88.42
2016-07-25T07:43:43.798Z,87.16
2016-07-25T07:44:44.212Z,84.93
2016-07-25T07:45:43.870Z,83.77
2016-07-25T07:46:43.629Z,81.73
2016-07-25T07:47:47.501Z,81.54
2016-07-25T07:49:44.464Z,80.82
2016-07-25T07:50:48.653Z,81.7
2016-07-25T07:51:43.620Z,81.15
2016-07-25T07:52:43.631Z,80.87
2016-07-25T07:53:43.704Z,80.42
2016-07-25T07:54:43.726Z,78.61
2016-07-25T07:55:43.672Z,76.81
2016-07-25T07:56:43.708Z,74.07
2016-07-25T07:57:43.776Z,72.11
2016-07-25T07:58:43.173Z,71.2
2016-07-25T07:59:43.653Z,68.35
2016-07-25T08:00:43.647Z,65.98
2016-07-25T08:01:43.670Z,63.67
2016-07-25T08:02:47.448Z,63.51
2016-07-25T08:03:43.663Z,61
2016-07-25T08:04:43.679Z,62.11
2016-07-25T08:05:43.715Z,62.56
2016-07-25T08:06:43.694Z,62.92
2016-07-25T08:07:45.529Z,63.12
2016-07-25T08:08:43.902Z,62.99
2016-07-25T08:09:43.672Z,63.51
2016-07-25T08:10:43.678Z,63.28
2016-07-25T08:11:43.829Z,62.27
2016-07-25T08:12:43.695Z,61.43
2016-07-25T08:13:43.831Z,61.4
2016-07-25T08:14:43.685Z,63.02
2016-07-25T08:15:44.243Z,62.18
2016-07-25T08:16:43.705Z,64.87
2016-07-25T08:17:46.825Z,67.64
2016-07-25T08:18:43.721Z,70.07
2016-07-25T08:19:43.774Z,71.11
2016-07-25T08:20:44.562Z,71.26
2016-07-25T08:21:43.696Z,70.97
2016-07-25T08:22:43.715Z,69.45
2016-07-25T08:24:45.298Z,64.17
2016-07-25T08:25:43.702Z,63.32
2016-07-25T08:26:43.922Z,62.05
2016-07-25T08:27:45.794Z,60.82
2016-07-25T08:28:43.750Z,60.52
2016-07-25T08:29:43.850Z,59.09
2016-07-25T08:30:43.735Z,58.24
2016-07-25T08:31:48.752Z,59.25
2016-07-25T08:32:43.729Z,58.27
2016-07-25T08:33:44.320Z,57.52
2016-07-25T08:34:43.742Z,58.3
2016-07-25T08:35:43.952Z,58.3
2016-07-25T08:36:43.730Z,57.06
2016-07-25T08:37:43.735Z,57.18
2016-07-25T08:38:43.722Z,56.1
2016-07-25T08:39:43.761Z,57.11
2016-07-25T08:40:43.755Z,56.4
2016-07-25T08:41:43.754Z,55.74
2016-07-25T08:43:43.811Z,56.01
2016-07-25T08:44:43.780Z,55.94
2016-07-25T08:45:43.740Z,56.01
2016-07-25T08:46:44.256Z,53.39
2016-07-25T08:47:43.943Z,53.33
2016-07-25T08:48:44.247Z,53.23
2016-07-25T08:49:44.201Z,52.81
2016-07-25T08:51:04.348Z,53.37
2016-07-25T08:51:43.801Z,53.42
2016-07-25T08:52:43.171Z,53.25
2016-07-25T08:53:43.761Z,53.08
2016-07-25T08:54:47.599Z,51.46
2016-07-25T08:55:43.324Z,52.73
2016-07-25T08:56:43.885Z,49.65
2016-07-25T08:57:43.770Z,49.48
2016-07-25T08:58:45.278Z,51.1
2016-07-25T08:59:43.789Z,50.68
2016-07-25T09:00:43.849Z,51.44
2016-07-25T09:01:44.067Z,50.98
2016-07-25T09:02:45.469Z,50.81
2016-07-25T09:03:43.799Z,51.46
2016-07-25T09:04:47.488Z,52.32
2016-07-25T09:05:43.775Z,53.83
2016-07-25T09:06:46.557Z,53.74
2016-07-25T09:07:43.827Z,52.49
2016-07-25T09:08:43.765Z,52.22
2016-07-25T09:09:43.872Z,52.83
2016-07-25T09:10:43.800Z,53.78
2016-07-25T09:11:43.981Z,53.47
2016-07-25T09:12:43.939Z,52.64
2016-07-25T09:13:44.272Z,52.73
2016-07-25T09:14:44.649Z,52.79
2016-07-25T09:15:43.809Z,51.61
2016-07-25T09:16:44.272Z,53.06
2016-07-25T09:17:44.792Z,52.64
2016-07-25T09:18:45.952Z,53.45
2016-07-25T09:19:44.487Z,52.67
2016-07-25T09:20:43.881Z,52.69
2016-07-25T09:21:43.815Z,52.76
2016-07-25T09:22:44.987Z,53.06
2016-07-25T09:23:48.306Z,55.21
2016-07-25T09:24:43.833Z,56.5
2016-07-25T09:25:44.089Z,57.62
2016-07-25T09:26:43.835Z,57.23
2016-07-25T09:27:44.868Z,58.59
2016-07-25T09:28:43.821Z,57.62
2016-07-25T09:29:45.707Z,56.3
2016-07-25T09:31:44.064Z,56.43
2016-07-25T09:32:43.849Z,55.08
2016-07-25T09:33:43.882Z,55.08
2016-07-25T09:34:43.856Z,55.87
2016-07-25T09:35:43.858Z,55.47
2016-07-25T09:36:44.736Z,55.08
2016-07-25T09:37:43.843Z,55.14
2016-07-25T09:38:44.298Z,55.28
2016-07-25T09:39:44.436Z,52.4
2016-07-25T09:40:44.123Z,52.84
2016-07-25T09:41:43.888Z,51.49
2016-07-25T09:42:43.953Z,52.18
2016-07-25T09:43:43.874Z,53.36
2016-07-25T09:44:43.884Z,52.55
2016-07-25T09:45:47.994Z,51.96
2016-07-25T09:46:43.996Z,52.74
2016-07-25T09:47:43.945Z,53.4
2016-07-25T09:48:43.971Z,54.16
2016-07-25T09:49:46.639Z,53.38
2016-07-25T09:50:44.720Z,53.47
2016-07-25T09:51:43.981Z,54.13
2016-07-25T09:52:43.887Z,54.62
2016-07-25T09:53:43.881Z,54.4
2016-07-25T09:54:43.898Z,53.94
2016-07-25T09:55:44.291Z,53.47
2016-07-25T09:56:43.975Z,53.57
2016-07-25T09:57:43.966Z,53.4
2016-07-25T09:58:47.030Z,53.2
2016-07-25T09:59:44.382Z,55.24
2016-07-25T10:00:45.710Z,53.52
2016-07-25T10:01:44.089Z,53.94
2016-07-25T10:02:43.970Z,53.96
2016-07-25T10:03:43.955Z,55.04
2016-07-25T10:04:43.918Z,54.38
2016-07-25T10:05:43.935Z,53.96
2016-07-25T10:07:43.943Z,55.01
2016-07-25T10:08:43.968Z,54.4
2016-07-25T10:09:43.933Z,54.43
2016-07-25T10:10:57.066Z,54.33
2016-07-25T10:11:43.976Z,54.33
2016-07-25T10:12:56.968Z,54.94
2016-07-25T10:13:43.971Z,55.47
2016-07-25T10:14:45.879Z,56.3
2016-07-25T10:24:44.451Z,55.16
2016-07-25T10:25:01.734Z,54.58
2016-07-25T10:26:01.708Z,52.72
2016-07-25T10:27:01.616Z,54.04
2016-07-25T10:28:12.592Z,54.38
2016-07-25T10:29:02.059Z,54.25
2016-07-25T10:30:01.612Z,54.65
2016-07-25T10:31:01.650Z,53.96
2016-07-25T10:32:01.617Z,52.13
2016-07-25T10:33:01.613Z,51.59
2016-07-25T10:34:02.152Z,51.22
2016-07-25T10:35:01.608Z,50.39
2016-07-25T10:36:02.500Z,50.95
2016-07-25T10:37:01.765Z,52.01
2016-07-25T10:38:01.654Z,53.23
2016-07-25T10:39:01.997Z,52.33
2016-07-25T10:40:01.653Z,51.56
2016-07-25T10:41:02.079Z,51.03
2016-07-25T10:42:14.273Z,50.37
2016-07-25T10:43:01.662Z,49.99
2016-07-25T10:44:04.477Z,50.16
2016-07-25T10:45:01.676Z,50.34
2016-07-25T10:46:01.637Z,51.42
2016-07-25T10:47:21.288Z,50.9
2016-07-25T10:48:01.678Z,51.96
2016-07-25T10:49:01.646Z,55.07
2016-07-25T10:50:01.734Z,58.16
2016-07-25T10:51:01.655Z,59.47
2016-07-25T10:52:11.484Z,60.61
2016-07-25T10:53:01.700Z,60.88
2016-07-25T10:54:01.876Z,59.15
2016-07-25T10:55:01.787Z,59.25
2016-07-25T10:56:01.726Z,59.15
2016-07-25T10:57:15.358Z,57.39
2016-07-25T10:58:02.366Z,56.57
2016-07-25T10:59:02.791Z,55.26
2016-07-25T11:00:02.282Z,56.52
2016-07-25T11:01:01.861Z,59.3
2016-07-25T11:02:01.682Z,61.17
2016-07-25T11:03:01.733Z,63.06
2016-07-25T11:04:02.717Z,64.59
2016-07-25T11:05:04.824Z,63.26
2016-07-25T11:06:01.748Z,61.89
2016-07-25T11:07:01.848Z,59.77
2016-07-25T11:08:01.761Z,58.95
2016-07-25T11:09:02.045Z,59.34
2016-07-25T11:10:10.264Z,59.57
2016-07-25T11:11:22.254Z,58.66
2016-07-25T11:12:03.081Z,59.64
2016-07-25T11:13:01.825Z,59.9
2016-07-25T11:14:11.908Z,62.5
2016-07-25T11:15:03.176Z,62.86
2016-07-25T11:16:01.916Z,60.82
2016-07-25T11:17:16.901Z,58.37
2016-07-25T11:18:03.108Z,57.06
2016-07-25T11:19:06.568Z,56.2
2016-07-25T11:20:01.744Z,55.18
2016-07-25T11:21:06.685Z,56.36
2016-07-25T11:22:01.732Z,55.38
2016-07-25T11:23:02.026Z,54.6
2016-07-25T11:24:02.667Z,55.28
2016-07-25T11:25:02.219Z,54.4
2016-07-25T11:38:02.686Z,47.85
2016-07-25T11:38:19.881Z,47.98
2016-07-25T11:39:19.959Z,48.27
2016-07-25T11:40:19.873Z,48.08
2016-07-25T11:52:37.048Z,51.69
2016-07-25T11:53:49.314Z,49.6
2016-07-25T11:54:37.021Z,49.63
2016-07-25T11:55:37.425Z,49.65
2016-07-25T11:56:37.156Z,49.16
2016-07-25T11:57:47.989Z,48.65
2016-07-25T11:58:41.568Z,48.67
2016-07-25T11:59:41.368Z,49.14
2016-07-25T12:00:37.064Z,48.85
2016-07-25T12:01:45.073Z,50.93
2016-07-25T12:02:38.380Z,52.1
2016-07-25T12:03:37.018Z,54.4
2016-07-25T12:04:37.047Z,54.93
2016-07-25T12:06:04.257Z,52.2
2016-07-25T12:06:37.703Z,51.61
2016-07-25T12:07:51.170Z,50.07
2016-07-25T12:08:37.230Z,51.51
2016-07-25T12:09:37.050Z,53.35
2016-07-25T12:10:38.501Z,54.47
2016-07-25T12:11:41.539Z,57.35
2016-07-25T12:12:44.248Z,58.76
2016-07-25T12:13:47.229Z,59.67
2016-07-25T12:14:37.163Z,60.33
2016-07-25T12:15:39.652Z,58.38
2016-07-25T12:16:37.092Z,56.87
2016-07-25T12:17:46.493Z,55.3
2016-07-25T12:18:56.343Z,57.18
2016-07-25T12:19:38.967Z,59.51
2016-07-25T12:20:37.069Z,61.11
2016-07-25T12:21:37.133Z,61.66
2016-07-25T12:22:37.838Z,62.99
2016-07-25T12:23:39.482Z,63.16
2016-07-25T12:24:37.128Z,64.42
2016-07-25T12:25:37.961Z,66.11
2016-07-25T12:26:38.852Z,67.28
2016-07-25T12:27:37.220Z,68.22
2016-07-25T12:28:37.141Z,68.6
2016-07-25T12:29:37.284Z,68.8
2016-07-25T12:30:37.152Z,68.51
2016-07-25T12:31:37.140Z,68.41
2016-07-25T12:32:39.441Z,69.09
2016-07-25T12:33:37.259Z,69.29
2016-07-25T12:34:40.612Z,68.9
2016-07-25T12:35:37.460Z,70.03
2016-07-25T12:36:37.341Z,70.29
2016-07-25T12:37:38.841Z,70.57
2016-07-25T12:38:37.520Z,70.87
2016-07-25T12:39:37.113Z,71.16
2016-07-25T12:40:38.516Z,69.93
2016-07-25T12:41:38.571Z,70.32
2016-07-25T12:42:38.093Z,71.58
2016-07-25T12:43:37.184Z,70.87
2016-07-25T12:44:37.219Z,70.81
2016-07-25T12:45:37.298Z,70.36
2016-07-25T12:46:49.475Z,70.32
2016-07-25T12:47:37.131Z,70.32
2016-07-25T12:48:37.110Z,70.22
2016-07-25T12:49:37.187Z,70.42
2016-07-25T12:50:37.132Z,70.03
2016-07-25T12:51:37.132Z,70.81
2016-07-25T12:52:38.083Z,70.12
2016-07-25T12:53:39.799Z,70.81
2016-07-25T12:54:37.848Z,70.42
2016-07-25T12:55:37.239Z,70.22
2016-07-25T12:56:37.133Z,70.9
2016-07-25T12:57:37.155Z,70.81
2016-07-25T12:58:37.199Z,70.71
2016-07-25T12:59:37.305Z,69.93
2016-07-25T13:00:37.210Z,70.71
2016-07-25T13:01:37.152Z,71.39
2016-07-25T13:02:37.203Z,72.03
2016-07-25T13:03:56.097Z,72.13
2016-07-25T13:04:37.271Z,72.23
2016-07-25T13:05:37.152Z,72.29
2016-07-25T13:06:37.249Z,72.97
2016-07-25T13:07:37.242Z,73.39
2016-07-25T13:08:37.262Z,73
2016-07-25T13:09:39.923Z,73.2
2016-07-25T13:10:37.281Z,72.52
2016-07-25T13:11:37.165Z,72.91
2016-07-25T13:12:37.162Z,72.87
2016-07-25T13:13:37.200Z,72.23
2016-07-25T13:14:37.312Z,72.61
2016-07-25T13:15:37.163Z,72.33
2016-07-25T13:16:37.324Z,72.61
2016-07-25T13:17:37.244Z,73.2
2016-07-25T13:18:37.210Z,72.71
2016-07-25T13:19:37.265Z,72.42
2016-07-25T13:20:37.221Z,72.52
2016-07-25T13:21:37.707Z,72.23
2016-07-25T13:22:37.342Z,73.1
2016-07-25T13:23:37.439Z,73.1
2016-07-25T13:24:41.239Z,73.55
2016-07-25T13:25:38.236Z,72.71
2016-07-25T13:26:37.265Z,73
2016-07-25T13:28:19.539Z,72.61
2016-07-25T13:28:51.657Z,72.61
2016-07-25T13:29:49.827Z,73
2016-07-25T13:31:00.287Z,73.1
2016-07-25T13:31:54.680Z,73
2016-07-25T13:32:49.853Z,73.1
2016-07-25T13:33:49.760Z,73.3
2016-07-25T13:34:49.731Z,72.71
2016-07-25T13:35:49.890Z,73
2016-07-25T13:36:49.760Z,73.68
2016-07-25T13:37:50.399Z,74.37
2016-07-25T13:38:54.314Z,75.72
2016-07-25T13:40:03.308Z,76.31
2016-07-25T13:45:29.668Z,76.5
2016-07-25T13:45:47.126Z,76.89
2016-07-25T13:46:47.216Z,76.98
2016-07-25T13:47:47.085Z,77.18
2016-07-25T13:48:47.059Z,76.89